Time;durP1;ratioP1;P1;durP2;ratioP2;P2;SDS_P1;SDS_P2;PMS_P1;PMS_P2;Temp;Humidity;BMP_temperature;BMP_pressure;BME280_temperature;BME280_humidity;BME280_pressure;Samples;Min_cycle;Max_cycle;Signal;HPM_P1;HPM_P2
2023/08/29 00:00:15;;;;;;;18.60;10.70;;;;;;;20.07;100.00;96784.77;107253;1263;25497;-80
2023/08/29 00:03:07;;;;;;;17.50;12.80;;;;;;;19.99;100.00;96911.01;107246;1276;22665;-80
2023/08/29 00:05:35;;;;;;;16.80;12.40;;;;;;;19.84;100.00;96932.05;107214;1276;22539;-80
2023/08/29 00:08:05;;;;;;;14.30;12.80;;;;;;;19.62;100.00;96895.50;107336;1276;22662;-80
2023/08/29 00:10:34;;;;;;;19.20;17.30;;;;;;;19.35;100.00;96917.73;107260;1266;22626;-80
2023/08/29 00:13:02;;;;;;;18.80;16.80;;;;;;;19.15;100.00;96929.92;107278;1276;22556;-80
2023/08/29 00:15:30;;;;;;;17.50;14.60;;;;;;;18.98;100.00;96930.02;107212;1276;24397;-81
2023/08/29 00:18:00;;;;;;;13.80;12.40;;;;;;;18.82;100.00;96935.89;107281;1276;26403;-80
2023/08/29 00:20:28;;;;;;;14.40;12.50;;;;;;;18.61;100.00;96896.30;107239;1276;22684;-79
2023/08/29 00:22:56;;;;;;;17.90;15.40;;;;;;;18.50;100.00;96888.79;107312;1266;27658;-79
2023/08/29 00:25:24;;;;;;;17.60;15.70;;;;;;;18.47;100.00;96874.81;107263;1276;25338;-80
2023/08/29 00:27:52;;;;;;;15.20;13.80;;;;;;;18.43;100.00;96879.98;107200;1266;172836;-81
2023/08/29 00:30:20;;;;;;;17.20;15.50;;;;;;;18.38;100.00;96880.49;107244;1276;25534;-80
2023/08/29 00:32:49;;;;;;;20.10;18.10;;;;;;;18.37;100.00;96886.33;107345;1266;22517;-81
2023/08/29 00:35:17;;;;;;;16.20;14.60;;;;;;;18.33;100.00;96886.97;107302;1276;24324;-81
2023/08/29 00:37:45;;;;;;;14.90;13.50;;;;;;;18.30;100.00;96882.66;107059;1260;22629;-80
2023/08/29 00:40:13;;;;;;;16.50;14.20;;;;;;;18.27;100.00;96879.35;107260;1277;22545;-80
2023/08/29 00:42:41;;;;;;;15.10;13.70;;;;;;;18.25;100.00;96875.14;106986;1269;25045;-80
2023/08/29 00:45:09;;;;;;;14.40;12.90;;;;;;;18.24;100.00;96875.67;107179;1276;22520;-82
2023/08/29 00:47:37;;;;;;;13.90;12.10;;;;;;;18.24;100.00;96870.67;107229;1276;22588;-81
2023/08/29 00:50:08;;;;;;;14.40;13.00;;;;;;;18.19;100.00;96868.68;107084;1276;22636;-80
2023/08/29 00:52:36;;;;;;;14.60;13.00;;;;;;;18.13;100.00;96871.66;107308;1276;24234;-80
2023/08/29 00:55:04;;;;;;;15.30;12.20;;;;;;;18.07;100.00;96873.46;107263;1276;22526;-79
2023/08/29 00:57:32;;;;;;;14.10;12.70;;;;;;;18.03;100.00;96869.13;107346;1276;22556;-80
2023/08/29 01:00:01;;;;;;;13.50;12.10;;;;;;;18.02;100.00;96865.55;107114;1263;22531;-80
2023/08/29 01:02:29;;;;;;;15.50;13.20;;;;;;;17.94;100.00;96855.95;107350;1266;24036;-80
2023/08/29 01:04:57;;;;;;;14.10;12.70;;;;;;;17.90;100.00;96852.18;107295;1263;24034;-80
2023/08/29 01:07:25;;;;;;;17.10;15.30;;;;;;;17.87;100.00;96852.59;107191;1276;25345;-80
2023/08/29 01:09:53;;;;;;;16.70;14.80;;;;;;;17.84;100.00;96845.48;107207;1276;24037;-80
2023/08/29 01:12:29;;;;;;;17.80;16.20;;;;;;;17.82;100.00;96842.34;107159;1276;22537;-80
2023/08/29 01:15:10;;;;;;;19.80;16.90;;;;;;;17.80;100.00;96842.86;107255;1276;24219;-80
2023/08/29 01:17:45;;;;;;;22.60;20.20;;;;;;;17.75;100.00;96836.80;107236;1277;22643;-79
2023/08/29 01:20:14;;;;;;;22.10;19.80;;;;;;;17.70;100.00;96830.04;107264;1263;24368;-80
2023/08/29 01:23:10;;;;;;;19.70;17.70;;;;;;;17.64;100.00;96834.62;107309;1263;22609;-81
2023/08/29 01:25:55;;;;;;;20.90;19.00;;;;;;;17.59;100.00;96841.66;107049;1277;22578;-80
2023/08/29 01:28:24;;;;;;;20.90;18.90;;;;;;;17.54;100.00;96833.17;107273;1277;22746;-81
2023/08/29 01:30:53;;;;;;;21.30;19.30;;;;;;;17.47;100.00;96829.05;107418;1260;24190;-79
2023/08/29 01:33:21;;;;;;;24.20;22.00;;;;;;;17.45;100.00;96835.41;107295;1266;22525;-79
2023/08/29 01:35:49;;;;;;;23.50;21.40;;;;;;;17.40;100.00;96831.77;107072;1276;25412;-79
2023/08/29 01:38:17;;;;;;;27.80;25.10;;;;;;;17.39;100.00;96832.77;107307;1272;22555;-79
2023/08/29 01:40:45;;;;;;;29.80;27.10;;;;;;;17.32;100.00;96823.73;107271;1263;24035;-79
2023/08/29 01:43:13;;;;;;;27.50;25.00;;;;;;;17.24;100.00;96816.01;107271;1276;22752;-79
2023/08/29 01:45:41;;;;;;;27.20;25.00;;;;;;;17.15;100.00;96826.45;107246;1266;22609;-79
2023/08/29 01:48:13;;;;;;;24.10;22.00;;;;;;;17.13;100.00;96828.99;106921;1276;22630;-79
2023/08/29 01:50:42;;;;;;;20.90;19.00;;;;;;;17.10;100.00;96826.91;107112;1276;22639;-79
2023/08/29 01:53:10;;;;;;;22.70;20.40;;;;;;;17.07;100.00;96814.81;107243;1267;22637;-80
2023/08/29 01:55:39;;;;;;;20.20;18.50;;;;;;;17.04;100.00;96803.43;107095;1276;23294;-80
2023/08/29 01:58:09;;;;;;;20.80;19.00;;;;;;;17.03;100.00;96798.13;107187;1254;22636;-80
2023/08/29 02:00:37;;;;;;;21.00;19.20;;;;;;;17.02;100.00;96794.36;107155;1276;22532;-80
2023/08/29 02:03:05;;;;;;;20.50;18.90;;;;;;;16.97;100.00;96784.05;107198;1277;22573;-79
2023/08/29 02:05:34;;;;;;;21.10;19.20;;;;;;;16.93;100.00;96796.81;106871;1276;22548;-80
2023/08/29 02:08:02;;;;;;;22.10;20.20;;;;;;;16.94;100.00;96807.78;107091;1270;25352;-80
2023/08/29 02:10:31;;;;;;;21.90;20.00;;;;;;;16.94;100.00;96810.67;107059;1277;22797;-80
2023/08/29 02:12:59;;;;;;;20.50;18.90;;;;;;;16.93;100.00;96814.30;107010;1277;22608;-81
2023/08/29 02:15:27;;;;;;;22.60;20.70;;;;;;;16.93;100.00;96814.16;107046;1269;22537;-81
2023/08/29 02:17:55;;;;;;;21.40;19.60;;;;;;;16.93;100.00;96804.98;107086;1277;24447;-81
2023/08/29 02:20:23;;;;;;;21.60;19.50;;;;;;;16.93;100.00;96804.21;107022;1269;22535;-81
2023/08/29 02:22:51;;;;;;;23.80;21.80;;;;;;;16.92;100.00;96804.35;107318;1275;22640;-81
2023/08/29 02:25:19;;;;;;;25.70;23.40;;;;;;;16.92;100.00;96799.77;107203;1266;22523;-80
2023/08/29 02:27:47;;;;;;;25.80;23.20;;;;;;;16.90;100.00;96797.78;107070;1276;25551;-80
2023/08/29 02:30:16;;;;;;;26.30;23.60;;;;;;;16.88;100.00;96794.96;107283;1263;24369;-80
2023/08/29 02:32:45;;;;;;;26.10;23.60;;;;;;;16.86;100.00;96780.17;107046;1277;23287;-80
2023/08/29 02:35:13;;;;;;;25.90;23.50;;;;;;;16.87;100.00;96771.62;107270;1275;25439;-80
2023/08/29 02:37:41;;;;;;;27.00;24.40;;;;;;;16.89;100.00;96759.60;107239;1275;22626;-80
2023/08/29 02:40:10;;;;;;;26.60;24.20;;;;;;;16.84;100.00;96762.64;107053;1267;22535;-81
2023/08/29 02:42:37;;;;;;;26.70;24.30;;;;;;;16.85;100.00;96762.73;107065;1266;22541;-80
2023/08/29 02:45:06;;;;;;;28.30;25.40;;;;;;;16.83;100.00;96767.20;107275;1259;22550;-80
2023/08/29 02:47:34;;;;;;;26.40;23.80;;;;;;;16.82;100.00;96774.05;107306;1277;22537;-81
2023/08/29 02:50:04;;;;;;;26.80;24.30;;;;;;;16.84;100.00;96778.11;107325;1277;22594;-80
2023/08/29 02:52:32;;;;;;;26.30;23.90;;;;;;;16.86;100.00;96788.48;107276;1266;22645;-80
2023/08/29 02:55:00;;;;;;;26.50;23.90;;;;;;;16.88;100.00;96798.45;107363;1277;23226;-80
2023/08/29 02:57:29;;;;;;;26.90;24.20;;;;;;;16.89;100.00;96801.66;107294;1277;22724;-81
2023/08/29 02:59:58;;;;;;;25.00;22.60;;;;;;;16.92;100.00;96799.91;107138;1268;22542;-83
2023/08/29 03:02:26;;;;;;;24.90;22.40;;;;;;;16.93;100.00;96788.59;108509;1277;25536;-81
2023/08/29 03:04:54;;;;;;;25.30;23.00;;;;;;;16.97;100.00;96790.11;107021;1278;25278;-80
2023/08/29 03:07:22;;;;;;;25.80;23.20;;;;;;;17.00;100.00;96792.48;107784;1274;23902;-79
2023/08/29 03:09:50;;;;;;;24.10;21.90;;;;;;;17.01;100.00;96794.36;107358;1273;22577;-80
2023/08/29 03:12:18;;;;;;;24.10;21.70;;;;;;;17.01;100.00;96786.99;106938;1270;23307;-80
2023/08/29 03:14:46;;;;;;;25.10;21.60;;;;;;;17.00;100.00;96779.04;106995;1276;23308;-80
2023/08/29 03:17:14;;;;;;;22.30;20.10;;;;;;;17.00;100.00;96768.77;107229;1265;22591;-80
2023/08/29 03:19:43;;;;;;;22.90;20.50;;;;;;;17.00;100.00;96766.20;107265;1266;22606;-80
2023/08/29 03:22:11;;;;;;;22.30;20.20;;;;;;;17.00;100.00;96768.30;107062;1277;22520;-80
2023/08/29 03:24:40;;;;;;;22.00;19.90;;;;;;;16.98;100.00;96760.28;107296;1267;22546;-80
2023/08/29 03:27:08;;;;;;;21.10;19.10;;;;;;;17.00;100.00;96759.83;107285;1259;22563;-80
2023/08/29 03:29:36;;;;;;;21.60;19.70;;;;;;;17.01;100.00;96771.05;107238;1274;22625;-80
2023/08/29 03:32:04;;;;;;;20.40;18.30;;;;;;;17.03;100.00;96772.32;107058;1270;22540;-80
2023/08/29 03:34:33;;;;;;;21.00;18.90;;;;;;;17.06;100.00;96759.14;107062;1267;26331;-80
2023/08/29 03:37:01;;;;;;;20.30;18.40;;;;;;;17.05;100.00;96755.79;107283;1263;24162;-80
2023/08/29 03:39:29;;;;;;;21.20;19.10;;;;;;;17.06;100.00;96758.11;107229;1273;23658;-80
2023/08/29 03:41:57;;;;;;;20.50;18.50;;;;;;;17.08;100.00;96763.76;107302;1267;23394;-80
2023/08/29 03:44:25;;;;;;;21.70;19.70;;;;;;;17.13;100.00;96765.77;107076;1269;22544;-80
2023/08/29 03:46:53;;;;;;;24.70;22.20;;;;;;;17.15;100.00;96766.02;107297;1273;23296;-80
2023/08/29 03:49:21;;;;;;;24.30;21.90;;;;;;;17.15;100.00;96758.10;107397;1276;22539;-81
2023/08/29 03:51:49;;;;;;;25.90;23.50;;;;;;;17.19;100.00;96762.73;107450;1276;25268;-81
2023/08/29 03:54:17;;;;;;;17.70;15.90;;;;;;;17.22;100.00;96779.72;107165;1266;22635;-80
2023/08/29 03:56:45;;;;;;;16.30;14.60;;;;;;;17.22;100.00;96779.41;106984;1262;22531;-80
2023/08/29 03:59:13;;;;;;;16.80;14.90;;;;;;;17.24;100.00;96770.02;107245;1263;22693;-80
2023/08/29 04:01:41;;;;;;;16.40;14.60;;;;;;;17.25;100.00;96762.09;107116;1266;24381;-80
2023/08/29 04:04:09;;;;;;;14.70;13.30;;;;;;;17.24;100.00;96767.16;107261;1276;24350;-80
2023/08/29 04:06:38;;;;;;;21.80;19.70;;;;;;;17.22;100.00;96767.19;107132;1277;22543;-81
2023/08/29 04:09:08;;;;;;;16.50;14.70;;;;;;;17.20;100.00;96767.33;107023;1267;25408;-80
2023/08/29 04:11:36;;;;;;;14.60;13.20;;;;;;;17.21;100.00;96783.14;107273;1263;22618;-80
2023/08/29 04:14:04;;;;;;;12.90;11.60;;;;;;;17.20;100.00;96795.40;107293;1266;22536;-80
2023/08/29 04:16:32;;;;;;;11.60;10.40;;;;;;;17.20;100.00;96795.10;107212;1266;22578;-80
2023/08/29 04:19:00;;;;;;;10.90;9.80;;;;;;;17.20;100.00;96798.05;107228;1276;22771;-79
2023/08/29 04:21:28;;;;;;;11.20;10.10;;;;;;;17.20;100.00;96799.52;107226;1276;23236;-79
2023/08/29 04:23:57;;;;;;;12.70;11.40;;;;;;;17.22;100.00;96786.49;107018;1277;22529;-80
2023/08/29 04:26:25;;;;;;;13.20;12.00;;;;;;;17.24;100.00;96780.91;107281;1265;22665;-80
2023/08/29 04:28:53;;;;;;;13.00;11.90;;;;;;;17.25;100.00;96777.02;107279;1274;22566;-80
2023/08/29 04:31:21;;;;;;;14.30;13.10;;;;;;;17.24;100.00;96769.95;107100;1267;22533;-79
2023/08/29 04:33:49;;;;;;;14.70;13.30;;;;;;;17.28;100.00;96770.07;107331;1263;23467;-80
2023/08/29 04:36:18;;;;;;;17.40;15.20;;;;;;;17.32;100.00;96775.09;106948;1270;25306;-79
2023/08/29 04:38:48;;;;;;;16.20;14.50;;;;;;;17.32;100.00;96783.80;107215;1276;22595;-80
2023/08/29 04:41:16;;;;;;;14.70;13.40;;;;;;;17.32;100.00;96782.80;107177;1267;24234;-80
2023/08/29 04:43:45;;;;;;;15.60;13.20;;;;;;;17.34;100.00;96777.06;107140;1267;24202;-79
2023/08/29 04:46:12;;;;;;;14.70;13.20;;;;;;;17.36;100.00;96771.11;107334;1263;24039;-80
2023/08/29 04:48:42;;;;;;;12.90;11.70;;;;;;;17.39;100.00;96765.39;107172;1267;24489;-84
2023/08/29 04:51:10;;;;;;;13.90;12.30;;;;;;;17.41;100.00;96764.39;107278;1276;24048;-82
2023/08/29 04:53:38;;;;;;;15.00;13.50;;;;;;;17.40;100.00;96759.86;107358;1270;24384;-85
2023/08/29 04:56:06;;;;;;;14.20;12.60;;;;;;;17.39;100.00;96749.52;107186;1276;25308;-84
2023/08/29 04:58:36;;;;;;;15.80;12.00;;;;;;;17.38;100.00;96746.47;106896;1254;22650;-85
2023/08/29 05:01:05;;;;;;;15.70;12.80;;;;;;;17.38;100.00;96752.76;107292;1267;22562;-84
2023/08/29 05:03:34;;;;;;;15.70;12.70;;;;;;;17.37;100.00;96755.55;107162;1276;22546;-83
2023/08/29 05:06:02;;;;;;;15.90;13.70;;;;;;;17.38;100.00;96755.73;107374;1266;25278;-84
2023/08/29 05:08:34;;;;;;;15.80;14.20;;;;;;;17.41;100.00;96753.12;107120;1276;22598;-80
2023/08/29 05:11:04;;;;;;;14.60;13.20;;;;;;;17.44;100.00;96754.31;107083;1276;23825;-82
2023/08/29 05:13:33;;;;;;;15.80;13.70;;;;;;;17.47;100.00;96758.33;107472;1270;25364;-85
2023/08/29 05:16:01;;;;;;;16.70;14.10;;;;;;;17.50;100.00;96760.00;106902;1276;24202;-83
2023/08/29 05:18:29;;;;;;;14.30;12.80;;;;;;;17.50;100.00;96756.72;106678;1276;24228;-82
2023/08/29 05:20:59;;;;;;;14.00;12.50;;;;;;;17.53;100.00;96747.73;107282;1270;22949;-79
2023/08/29 05:23:27;;;;;;;14.70;13.30;;;;;;;17.70;100.00;96737.09;106967;1276;22760;-77
2023/08/29 05:25:55;;;;;;;14.60;13.10;;;;;;;17.80;100.00;96729.84;107312;1270;22630;-79
2023/08/29 05:28:23;;;;;;;14.40;12.90;;;;;;;17.79;100.00;96728.48;107248;1266;22540;-80
2023/08/29 05:30:51;;;;;;;14.80;13.20;;;;;;;17.80;100.00;96725.86;107214;1276;24218;-80
2023/08/29 05:33:19;;;;;;;13.60;12.30;;;;;;;17.88;100.00;96717.22;107050;1276;25517;-81
2023/08/29 05:35:47;;;;;;;14.20;12.80;;;;;;;17.97;100.00;96708.96;107511;1270;22531;-82
2023/08/29 05:38:16;;;;;;;14.00;12.70;;;;;;;18.02;100.00;96703.56;107371;1273;22566;-88
2023/08/29 05:40:44;;;;;;;14.90;13.20;;;;;;;18.07;100.00;96700.64;107212;1275;24255;-89
2023/08/29 05:43:12;;;;;;;14.30;12.30;;;;;;;18.06;100.00;96697.84;107508;1276;24293;-87
2023/08/29 05:45:41;;;;;;;14.60;13.20;;;;;;;18.08;100.00;96698.31;107297;1263;24249;-90
2023/08/29 05:48:09;;;;;;;14.20;12.80;;;;;;;18.15;100.00;96704.13;107270;1263;22610;-84
2023/08/29 05:50:41;;;;;;;13.90;12.20;;;;;;;18.24;100.00;96709.73;107316;1264;22543;-87
2023/08/29 05:53:09;;;;;;;17.20;13.60;;;;;;;18.32;100.00;96709.63;107104;1276;22643;-86
2023/08/29 05:55:37;;;;;;;14.80;13.00;;;;;;;18.41;100.00;96716.80;107283;1262;24714;-85
2023/08/29 05:58:05;;;;;;;16.20;12.20;;;;;;;18.44;100.00;96730.52;107308;1276;22565;-86
2023/08/29 06:00:35;;;;;;;15.50;13.90;;;;;;;18.45;100.00;96743.56;107212;1277;25402;-86
2023/08/29 06:03:06;;;;;;;23.80;16.50;;;;;;;18.38;100.00;96743.58;107254;1276;23282;-85
2023/08/29 06:05:36;;;;;;;34.70;17.10;;;;;;;18.34;100.00;96746.73;107437;1273;22557;-87
2023/08/29 06:08:06;;;;;;;15.90;14.20;;;;;;;18.29;100.00;96737.81;107397;1266;24385;-86
2023/08/29 06:10:46;;;;;;;14.30;12.80;;;;;;;18.24;100.00;96735.67;107332;1264;22575;-85
2023/08/29 06:13:14;;;;;;;15.20;13.60;;;;;;;18.25;100.00;96740.98;107209;1263;22538;-87
2023/08/29 06:15:43;;;;;;;14.50;12.90;;;;;;;18.27;100.00;96745.42;107189;1263;22538;-87
2023/08/29 06:18:11;;;;;;;15.60;13.70;;;;;;;18.30;100.00;96764.40;107250;1270;25402;-85
2023/08/29 06:20:39;;;;;;;15.50;14.10;;;;;;;18.30;100.00;96784.89;107378;1273;22650;-84
2023/08/29 06:23:07;;;;;;;16.40;13.70;;;;;;;18.34;100.00;96792.40;107349;1256;22614;-86
2023/08/29 06:25:35;;;;;;;16.00;13.80;;;;;;;18.36;100.00;96806.45;107379;1276;24364;-86
2023/08/29 06:28:04;;;;;;;14.20;12.70;;;;;;;18.32;100.00;96833.45;107327;1276;23010;-85
2023/08/29 06:30:34;;;;;;;13.20;11.90;;;;;;;18.29;100.00;96844.16;107352;1270;22630;-86
2023/08/29 06:33:06;;;;;;;12.70;11.50;;;;;;;18.29;100.00;96844.00;107307;1263;24228;-87
2023/08/29 06:35:37;;;;;;;11.20;10.20;;;;;;;18.25;100.00;96857.29;107426;1276;23153;-86
2023/08/29 06:38:07;;;;;;;12.40;9.90;;;;;;;18.21;100.00;96866.83;107387;1276;22577;-86
2023/08/29 06:40:36;;;;;;;10.30;9.10;;;;;;;18.14;100.00;96880.95;107346;1276;22665;-83
2023/08/29 06:43:04;;;;;;;11.20;10.10;;;;;;;18.12;100.00;96908.10;107286;1276;22997;-86
2023/08/29 06:45:32;;;;;;;9.60;8.80;;;;;;;18.08;100.00;96947.00;107301;1270;22612;-85
2023/08/29 06:48:00;;;;;;;9.50;8.50;;;;;;;18.03;100.00;96942.50;108547;1269;22754;-85
2023/08/29 06:50:29;;;;;;;10.70;9.70;;;;;;;17.99;100.00;96912.00;109808;1276;22555;-86
2023/08/29 06:52:56;;;;;;;15.10;11.10;;;;;;;17.95;100.00;96855.02;109212;1262;22565;-85
2023/08/29 06:55:25;;;;;;;10.30;9.20;;;;;;;17.89;100.00;96751.73;108849;1262;23215;-83
2023/08/29 06:57:52;;;;;;;14.20;9.50;;;;;;;17.71;100.00;96653.83;109129;1263;26488;-85
2023/08/29 07:00:22;;;;;;;10.80;9.60;;;;;;;17.49;100.00;96644.36;109523;1273;25211;-87
2023/08/29 07:02:51;;;;;;;11.30;9.10;;;;;;;17.44;100.00;96653.33;107147;1271;22524;-85
2023/08/29 07:05:20;;;;;;;11.90;8.00;;;;;;;17.47;100.00;96636.95;107157;1270;24263;-85
2023/08/29 07:07:48;;;;;;;8.80;7.30;;;;;;;17.47;100.00;96617.40;107282;1276;23594;-86
2023/08/29 07:10:16;;;;;;;9.40;7.20;;;;;;;17.45;100.00;96598.58;107268;1276;22543;-84
2023/08/29 07:12:44;;;;;;;9.20;6.30;;;;;;;17.42;100.00;96604.23;107339;1276;23020;-85
2023/08/29 07:15:12;;;;;;;8.90;7.00;;;;;;;17.51;100.00;96653.02;107274;1276;25375;-85
2023/08/29 07:17:40;;;;;;;8.00;5.60;;;;;;;17.62;100.00;96682.06;107297;1276;22552;-85
2023/08/29 07:20:11;;;;;;;5.70;4.70;;;;;;;17.72;100.00;96700.30;107257;1276;24416;-84
2023/08/29 07:22:43;;;;;;;6.00;5.40;;;;;;;17.82;100.00;96721.36;107209;1270;23408;-84
2023/08/29 07:25:12;;;;;;;7.30;5.80;;;;;;;17.88;100.00;96752.40;107257;1276;22634;-85
2023/08/29 07:27:40;;;;;;;6.40;5.50;;;;;;;17.95;100.00;96764.61;107034;1267;22543;-84
2023/08/29 07:30:14;;;;;;;7.00;5.90;;;;;;;18.03;100.00;96765.15;107234;1276;23607;-84
2023/08/29 07:32:44;;;;;;;9.10;6.60;;;;;;;18.10;100.00;96766.56;107111;1275;22544;-84
2023/08/29 07:35:13;;;;;;;7.80;6.20;;;;;;;18.20;100.00;96768.36;107282;1272;25251;-83
2023/08/29 07:37:42;;;;;;;7.90;6.20;;;;;;;18.34;100.00;96759.29;107320;1263;22647;-85
2023/08/29 07:40:10;;;;;;;9.20;6.20;;;;;;;18.46;100.00;96757.13;107127;1276;22640;-84
2023/08/29 07:42:38;;;;;;;8.90;6.40;;;;;;;18.57;100.00;96757.27;107252;1276;24316;-85
2023/08/29 07:45:07;;;;;;;7.10;6.10;;;;;;;18.74;100.00;96754.44;107222;1262;24265;-85
2023/08/29 07:47:35;;;;;;;12.70;6.20;;;;;;;19.04;100.00;96748.79;107118;1276;22531;-84
2023/08/29 07:50:04;;;;;;;8.40;6.10;;;;;;;19.31;100.00;96749.30;107179;1263;22544;-85
2023/08/29 07:52:31;;;;;;;6.70;5.40;;;;;;;19.59;100.00;96751.38;107212;1272;22536;-85
2023/08/29 07:54:59;;;;;;;8.60;5.80;;;;;;;19.83;100.00;96748.26;107283;1276;22554;-84
2023/08/29 07:57:27;;;;;;;7.00;5.10;;;;;;;19.98;100.00;96743.28;107199;1276;24374;-84
2023/08/29 07:59:55;;;;;;;6.00;5.30;;;;;;;20.08;100.00;96748.07;107343;1266;25392;-85
2023/08/29 08:02:27;;;;;;;6.30;5.30;;;;;;;20.21;100.00;96754.48;107254;1276;24273;-84
2023/08/29 08:04:55;;;;;;;10.60;6.10;;;;;;;20.39;100.00;96748.63;107324;1270;22546;-85
2023/08/29 08:07:23;;;;;;;8.50;5.20;;;;;;;20.51;100.00;96739.16;107104;1262;23270;-83
2023/08/29 08:09:51;;;;;;;7.70;4.50;;;;;;;20.71;100.00;96734.88;107211;1276;22524;-84
2023/08/29 08:12:19;;;;;;;6.50;4.80;;;;;;;20.92;100.00;96737.02;107249;1276;25345;-85
2023/08/29 08:14:47;;;;;;;6.60;4.60;;;;;;;21.12;100.00;96738.22;107231;1266;22538;-84
2023/08/29 08:17:15;;;;;;;6.20;4.40;;;;;;;21.28;100.00;96736.73;107244;1266;24208;-84
2023/08/29 08:19:43;;;;;;;5.30;4.60;;;;;;;21.42;100.00;96735.94;107123;1277;22631;-84
2023/08/29 08:22:13;;;;;;;5.30;4.20;;;;;;;21.55;100.00;96738.92;107091;1261;24402;-85
2023/08/29 08:24:41;;;;;;;4.90;3.80;;;;;;;21.72;100.00;96737.74;107241;1266;24216;-84
2023/08/29 08:27:09;;;;;;;7.20;3.90;;;;;;;21.89;100.00;96736.31;107245;1276;24313;-84
2023/08/29 08:29:37;;;;;;;4.80;3.90;;;;;;;22.00;100.00;96733.34;107340;1273;22531;-85
2023/08/29 08:32:05;;;;;;;5.90;4.30;;;;;;;22.11;100.00;96738.76;107321;1276;22575;-84
2023/08/29 08:34:33;;;;;;;5.80;3.80;;;;;;;22.15;100.00;96738.89;107269;1276;24215;-84
2023/08/29 08:37:01;;;;;;;4.40;3.40;;;;;;;22.28;100.00;96740.38;107221;1276;22765;-82
2023/08/29 08:39:31;;;;;;;5.20;3.60;;;;;;;22.46;100.00;96742.04;107306;1273;22536;-84
2023/08/29 08:42:02;;;;;;;4.50;3.30;;;;;;;22.61;100.00;96732.89;107340;1276;22579;-85
2023/08/29 08:44:34;;;;;;;6.20;3.80;;;;;;;22.71;100.00;96722.05;107294;1273;24442;-85
2023/08/29 08:47:03;;;;;;;7.20;3.40;;;;;;;22.79;100.00;96725.17;107281;1276;22776;-85
2023/08/29 08:49:32;;;;;;;4.80;3.30;;;;;;;22.92;100.00;96731.49;107325;1276;22907;-84
2023/08/29 08:52:03;;;;;;;5.20;3.40;;;;;;;23.03;100.00;96728.35;107374;1263;22694;-85
2023/08/29 08:54:33;;;;;;;4.60;3.30;;;;;;;23.15;100.00;96728.38;107334;1276;22580;-85
2023/08/29 08:57:01;;;;;;;7.30;4.10;;;;;;;23.19;100.00;96735.23;107301;1263;25303;-84
2023/08/29 08:59:29;;;;;;;4.40;3.60;;;;;;;23.24;100.00;96735.81;107291;1276;22617;-84
2023/08/29 09:01:57;;;;;;;5.70;3.60;;;;;;;23.33;100.00;96736.40;107260;1276;25469;-85
2023/08/29 09:04:25;;;;;;;5.80;3.60;;;;;;;23.42;100.00;96739.13;107275;1276;22648;-85
2023/08/29 09:06:54;;;;;;;5.70;3.30;;;;;;;23.56;100.00;96744.05;107264;1266;25253;-84
2023/08/29 09:09:23;;;;;;;6.10;3.60;;;;;;;23.69;100.00;96745.54;107262;1266;23502;-86
2023/08/29 09:11:56;;;;;;;6.00;3.60;;;;;;;23.78;100.00;96741.58;107211;1274;22573;-86
2023/08/29 09:14:25;;;;;;;5.40;3.70;;;;;;;23.83;100.00;96742.54;107324;1270;22548;-84
2023/08/29 09:16:56;;;;;;;8.10;4.20;;;;;;;23.86;100.00;96738.95;107219;1263;22606;-85
2023/08/29 09:19:25;;;;;;;9.00;7.30;;;;;;;23.90;100.00;96743.00;107207;1263;22630;-85
2023/08/29 09:21:53;;;;;;;6.90;3.80;;;;;;;24.00;100.00;96748.11;107300;1269;22562;-86
2023/08/29 09:24:35;;;;;;;5.90;3.70;;;;;;;24.11;100.00;96749.21;107156;1276;22568;-85
2023/08/29 09:27:09;;;;;;;6.60;3.90;;;;;;;24.23;100.00;96761.52;107143;1276;22535;-86
2023/08/29 09:29:37;;;;;;;7.40;4.20;;;;;;;24.29;100.00;96764.04;107167;1276;24244;-86
2023/08/29 09:32:16;;;;;;;6.10;4.00;;;;;;;24.30;100.00;96766.06;107267;1276;24269;-85
2023/08/29 09:34:44;;;;;;;7.80;4.00;;;;;;;24.23;100.00;96756.50;107265;1274;22638;-86
2023/08/29 09:37:12;;;;;;;7.10;4.20;;;;;;;24.11;100.00;96765.09;107260;1276;24221;-86
2023/08/29 09:39:40;;;;;;;6.00;3.60;;;;;;;24.01;100.00;96774.98;107138;1276;22556;-86
2023/08/29 09:42:10;;;;;;;6.10;4.10;;;;;;;23.92;100.00;96776.53;107324;1276;24026;-86
2023/08/29 09:44:40;;;;;;;7.20;3.60;;;;;;;23.87;100.00;96781.94;107173;1276;22541;-86
2023/08/29 09:47:10;;;;;;;5.90;4.10;;;;;;;23.84;100.00;96788.98;107388;1276;23375;-86
2023/08/29 09:49:47;;;;;;;5.80;3.70;;;;;;;23.83;100.00;96784.27;107374;1276;22531;-86
2023/08/29 09:52:16;;;;;;;6.70;3.50;;;;;;;23.90;100.00;96787.48;107265;1278;22650;-86
2023/08/29 09:54:48;;;;;;;8.00;3.60;;;;;;;23.96;100.00;96796.90;107445;1276;25233;-86
2023/08/29 09:57:19;;;;;;;4.50;3.30;;;;;;;23.97;100.00;96802.02;107337;1276;24247;-86
2023/08/29 09:59:49;;;;;;;4.80;3.80;;;;;;;24.06;100.00;96802.44;107487;1276;22614;-84
2023/08/29 10:02:20;;;;;;;5.40;3.50;;;;;;;24.17;100.00;96796.23;107387;1276;22556;-83
2023/08/29 10:04:55;;;;;;;6.80;3.20;;;;;;;24.29;100.00;96796.13;107282;1263;22523;-86
2023/08/29 10:07:33;;;;;;;6.10;3.10;;;;;;;24.40;99.98;96795.89;107336;1276;23429;-84
2023/08/29 10:10:02;;;;;;;5.60;3.60;;;;;;;24.48;100.00;96802.48;107094;1276;25364;-86
2023/08/29 10:12:30;;;;;;;6.50;3.60;;;;;;;24.57;100.00;96803.98;107194;1276;22991;-86
2023/08/29 10:15:00;;;;;;;5.60;3.20;;;;;;;24.63;99.69;96806.17;107305;1262;23297;-85
2023/08/29 10:17:32;;;;;;;4.60;3.60;;;;;;;24.59;97.98;96806.63;107311;1276;25472;-86
2023/08/29 10:20:08;;;;;;;22.10;13.50;;;;;;;24.49;96.27;96819.05;107443;1275;22542;-85
2023/08/29 10:22:39;;;;;;;13.60;8.20;;;;;;;24.40;96.19;96826.95;107303;1276;22537;-84
2023/08/29 10:25:07;;;;;;;13.90;8.80;;;;;;;24.43;96.25;96827.56;107334;1262;22634;-85
2023/08/29 10:27:35;;;;;;;8.80;5.00;;;;;;;24.46;95.54;96828.39;107071;1276;24286;-85
2023/08/29 10:30:05;;;;;;;6.00;4.70;;;;;;;24.53;95.48;96830.16;107088;1276;26834;-84
2023/08/29 10:32:36;;;;;;;8.50;5.00;;;;;;;24.59;95.03;96828.52;107205;1273;23234;-85
2023/08/29 10:35:05;;;;;;;10.70;5.80;;;;;;;24.62;93.64;96822.80;108266;1269;22723;-83
2023/08/29 10:37:33;;;;;;;6.30;4.50;;;;;;;24.63;92.67;96823.17;107988;1267;22577;-85
2023/08/29 10:40:11;;;;;;;6.40;4.30;;;;;;;24.56;92.88;96818.95;108834;1276;25408;-84
2023/08/29 10:42:49;;;;;;;7.70;4.00;;;;;;;24.57;92.64;96812.58;109223;1262;22542;-85
2023/08/29 10:45:20;;;;;;;7.10;4.50;;;;;;;24.54;92.05;96813.32;107373;1276;25574;-85
2023/08/29 10:47:48;;;;;;;7.10;4.00;;;;;;;24.47;92.75;96811.54;107258;1276;22878;-85
2023/08/29 10:50:22;;;;;;;7.80;4.40;;;;;;;24.42;92.50;96821.90;107323;1262;22526;-84
2023/08/29 10:52:56;;;;;;;7.70;4.20;;;;;;;24.42;93.81;96829.23;107297;1276;22575;-85
2023/08/29 10:55:27;;;;;;;7.80;4.20;;;;;;;24.47;94.08;96837.17;107215;1276;22668;-85
2023/08/29 10:57:59;;;;;;;8.20;4.10;;;;;;;24.48;92.82;96847.55;107112;1276;22556;-85
2023/08/29 11:00:39;;;;;;;7.50;4.30;;;;;;;24.46;92.74;96846.86;107191;1276;22526;-87
2023/08/29 11:03:08;;;;;;;7.60;4.10;;;;;;;24.47;93.21;96840.48;107346;1273;24253;-86
2023/08/29 11:05:38;;;;;;;9.20;4.40;;;;;;;24.52;92.94;96850.11;107152;1275;22779;-85
2023/08/29 11:08:21;;;;;;;8.20;4.60;;;;;;;24.55;91.27;96851.31;107141;1263;23890;-85
2023/08/29 11:11:17;;;;;;;9.60;5.00;;;;;;;24.48;90.25;96856.27;107351;1261;22581;-86
2023/08/29 11:13:59;;;;;;;4.70;3.90;;;;;;;24.40;90.81;96850.16;107260;1276;25380;-85
2023/08/29 11:16:29;;;;;;;6.50;4.20;;;;;;;24.43;92.26;96838.96;107276;1276;23913;-85
2023/08/29 11:19:12;;;;;;;6.80;5.00;;;;;;;24.54;90.72;96830.71;107237;1276;24085;-85